sensor_id;sensor_type;location;lat;lon;timestamp;P1;durP1;ratioP1;P2;durP2;ratioP2
41141;SDS011;63666;52.284;20.890;2022-09-20T00:01:49;4.70;;;3.50;;
41141;SDS011;63666;52.284;20.890;2022-09-20T00:04:19;5.10;;;3.10;;
41141;SDS011;63666;52.284;20.890;2022-09-20T00:06:48;4.80;;;3.10;;
41141;SDS011;63666;52.284;20.890;2022-09-20T00:09:17;4.80;;;3.50;;
41141;SDS011;63666;52.284;20.890;2022-09-20T00:11:46;5.10;;;3.50;;
41141;SDS011;63666;52.284;20.890;2022-09-20T00:14:15;5.10;;;3.20;;
41141;SDS011;63666;52.284;20.890;2022-09-20T00:16:44;4.80;;;3.50;;
41141;SDS011;63666;52.284;20.890;2022-09-20T00:19:16;5.10;;;3.20;;
41141;SDS011;63666;52.284;20.890;2022-09-20T00:21:46;5.30;;;3.50;;
41141;SDS011;63666;52.284;20.890;2022-09-20T00:24:15;4.60;;;3.10;;
41141;SDS011;63666;52.284;20.890;2022-09-20T00:26:44;5.40;;;3.50;;
41141;SDS011;63666;52.284;20.890;2022-09-20T00:29:14;5.60;;;3.60;;
41141;SDS011;63666;52.284;20.890;2022-09-20T00:31:43;5.80;;;3.80;;
41141;SDS011;63666;52.284;20.890;2022-09-20T00:34:13;7.20;;;5.00;;
41141;SDS011;63666;52.284;20.890;2022-09-20T00:37:00;5.80;;;4.70;;
41141;SDS011;63666;52.284;20.890;2022-09-20T00:39:29;6.30;;;5.10;;
41141;SDS011;63666;52.284;20.890;2022-09-20T00:41:58;6.50;;;4.90;;
41141;SDS011;63666;52.284;20.890;2022-09-20T00:44:52;7.10;;;5.40;;
41141;SDS011;63666;52.284;20.890;2022-09-20T00:47:25;7.40;;;5.40;;
41141;SDS011;63666;52.284;20.890;2022-09-20T00:49:57;7.50;;;5.60;;
41141;SDS011;63666;52.284;20.890;2022-09-20T00:52:27;7.10;;;5.20;;
41141;SDS011;63666;52.284;20.890;2022-09-20T00:54:57;6.60;;;5.40;;
41141;SDS011;63666;52.284;20.890;2022-09-20T00:57:26;6.90;;;5.20;;
41141;SDS011;63666;52.284;20.890;2022-09-20T01:00:05;7.00;;;5.50;;
41141;SDS011;63666;52.284;20.890;2022-09-20T01:02:36;8.30;;;6.20;;
41141;SDS011;63666;52.284;20.890;2022-09-20T01:05:06;7.80;;;6.90;;
41141;SDS011;63666;52.284;20.890;2022-09-20T01:07:37;8.10;;;6.70;;
41141;SDS011;63666;52.284;20.890;2022-09-20T01:10:07;7.20;;;6.50;;
41141;SDS011;63666;52.284;20.890;2022-09-20T01:12:37;7.60;;;6.20;;
41141;SDS011;63666;52.284;20.890;2022-09-20T01:15:08;7.10;;;6.40;;
41141;SDS011;63666;52.284;20.890;2022-09-20T01:17:43;6.70;;;6.00;;
41141;SDS011;63666;52.284;20.890;2022-09-20T01:20:15;6.80;;;6.10;;
41141;SDS011;63666;52.284;20.890;2022-09-20T01:22:49;6.80;;;5.90;;
41141;SDS011;63666;52.284;20.890;2022-09-20T01:25:25;6.70;;;5.50;;
41141;SDS011;63666;52.284;20.890;2022-09-20T01:27:56;6.60;;;5.60;;
41141;SDS011;63666;52.284;20.890;2022-09-20T01:30:27;6.60;;;5.50;;
41141;SDS011;63666;52.284;20.890;2022-09-20T01:33:03;6.10;;;5.50;;
41141;SDS011;63666;52.284;20.890;2022-09-20T01:35:36;7.00;;;5.20;;
41141;SDS011;63666;52.284;20.890;2022-09-20T01:38:10;6.30;;;5.20;;
41141;SDS011;63666;52.284;20.890;2022-09-20T01:40:44;6.90;;;5.40;;
41141;SDS011;63666;52.284;20.890;2022-09-20T01:43:17;6.50;;;5.40;;
41141;SDS011;63666;52.284;20.890;2022-09-20T01:45:49;6.80;;;4.90;;
41141;SDS011;63666;52.284;20.890;2022-09-20T01:48:21;7.80;;;5.40;;
41141;SDS011;63666;52.284;20.890;2022-09-20T01:51:00;5.70;;;4.70;;
41141;SDS011;63666;52.284;20.890;2022-09-20T01:53:50;6.00;;;4.60;;
41141;SDS011;63666;52.284;20.890;2022-09-20T01:56:34;5.90;;;4.60;;
41141;SDS011;63666;52.284;20.890;2022-09-20T01:59:09;6.10;;;4.50;;
41141;SDS011;63666;52.284;20.890;2022-09-20T02:04:14;6.30;;;4.50;;
41141;SDS011;63666;52.284;20.890;2022-09-20T02:06:55;5.60;;;4.20;;
41141;SDS011;63666;52.284;20.890;2022-09-20T02:09:33;5.90;;;4.30;;
41141;SDS011;63666;52.284;20.890;2022-09-20T02:12:11;6.10;;;4.50;;
41141;SDS011;63666;52.284;20.890;2022-09-20T02:14:48;6.10;;;4.20;;
41141;SDS011;63666;52.284;20.890;2022-09-20T02:17:21;6.90;;;4.90;;
41141;SDS011;63666;52.284;20.890;2022-09-20T02:20:12;6.40;;;4.40;;
41141;SDS011;63666;52.284;20.890;2022-09-20T02:25:34;5.70;;;4.40;;
41141;SDS011;63666;52.284;20.890;2022-09-20T02:28:07;5.20;;;4.20;;
41141;SDS011;63666;52.284;20.890;2022-09-20T02:30:43;5.60;;;4.10;;
41141;SDS011;63666;52.284;20.890;2022-09-20T02:33:34;5.70;;;4.10;;
41141;SDS011;63666;52.284;20.890;2022-09-20T02:36:13;6.40;;;4.10;;
41141;SDS011;63666;52.284;20.890;2022-09-20T02:38:51;5.60;;;3.90;;
41141;SDS011;63666;52.284;20.890;2022-09-20T02:41:29;5.40;;;4.00;;
41141;SDS011;63666;52.284;20.890;2022-09-20T02:44:03;6.50;;;4.20;;
41141;SDS011;63666;52.284;20.890;2022-09-20T02:46:36;5.60;;;3.70;;
41141;SDS011;63666;52.284;20.890;2022-09-20T02:49:09;5.30;;;4.20;;
41141;SDS011;63666;52.284;20.890;2022-09-20T02:51:42;5.00;;;3.60;;
41141;SDS011;63666;52.284;20.890;2022-09-20T02:54:16;5.80;;;4.10;;
41141;SDS011;63666;52.284;20.890;2022-09-20T02:56:53;5.20;;;4.20;;
41141;SDS011;63666;52.284;20.890;2022-09-20T02:59:29;5.50;;;3.80;;
41141;SDS011;63666;52.284;20.890;2022-09-20T03:02:03;5.80;;;3.90;;
41141;SDS011;63666;52.284;20.890;2022-09-20T03:04:36;5.40;;;3.90;;
41141;SDS011;63666;52.284;20.890;2022-09-20T03:07:14;5.50;;;4.20;;
41141;SDS011;63666;52.284;20.890;2022-09-20T03:09:48;5.60;;;3.80;;
41141;SDS011;63666;52.284;20.890;2022-09-20T03:12:23;5.30;;;4.00;;
41141;SDS011;63666;52.284;20.890;2022-09-20T03:14:56;5.30;;;3.50;;
41141;SDS011;63666;52.284;20.890;2022-09-20T03:17:29;4.90;;;3.60;;
41141;SDS011;63666;52.284;20.890;2022-09-20T03:20:04;5.90;;;3.80;;
41141;SDS011;63666;52.284;20.890;2022-09-20T03:22:45;5.30;;;3.50;;
41141;SDS011;63666;52.284;20.890;2022-09-20T03:25:25;4.90;;;3.70;;
41141;SDS011;63666;52.284;20.890;2022-09-20T03:28:04;5.50;;;3.60;;
41141;SDS011;63666;52.284;20.890;2022-09-20T03:30:39;5.30;;;3.60;;
41141;SDS011;63666;52.284;20.890;2022-09-20T03:33:12;5.00;;;3.50;;
41141;SDS011;63666;52.284;20.890;2022-09-20T03:35:52;5.70;;;3.70;;
41141;SDS011;63666;52.284;20.890;2022-09-20T03:38:30;5.70;;;3.80;;
41141;SDS011;63666;52.284;20.890;2022-09-20T03:41:06;5.30;;;3.60;;
41141;SDS011;63666;52.284;20.890;2022-09-20T03:43:46;5.80;;;3.60;;
41141;SDS011;63666;52.284;20.890;2022-09-20T03:46:23;5.20;;;3.70;;
41141;SDS011;63666;52.284;20.890;2022-09-20T03:51:42;5.20;;;3.80;;
41141;SDS011;63666;52.284;20.890;2022-09-20T03:54:26;4.80;;;3.50;;
41141;SDS011;63666;52.284;20.890;2022-09-20T03:57:16;5.50;;;3.40;;
41141;SDS011;63666;52.284;20.890;2022-09-20T03:59:54;5.20;;;3.50;;
41141;SDS011;63666;52.284;20.890;2022-09-20T04:02:35;5.30;;;3.70;;
41141;SDS011;63666;52.284;20.890;2022-09-20T04:05:08;4.90;;;3.40;;
41141;SDS011;63666;52.284;20.890;2022-09-20T04:07:42;5.40;;;3.60;;
41141;SDS011;63666;52.284;20.890;2022-09-20T04:10:23;4.80;;;3.20;;
41141;SDS011;63666;52.284;20.890;2022-09-20T04:13:14;5.30;;;3.50;;
41141;SDS011;63666;52.284;20.890;2022-09-20T04:15:50;5.60;;;3.60;;
41141;SDS011;63666;52.284;20.890;2022-09-20T04:18:23;5.00;;;3.50;;
41141;SDS011;63666;52.284;20.890;2022-09-20T04:20:58;4.90;;;3.70;;
41141;SDS011;63666;52.284;20.890;2022-09-20T04:23:33;5.00;;;3.30;;
41141;SDS011;63666;52.284;20.890;2022-09-20T04:28:33;4.70;;;3.10;;
41141;SDS011;63666;52.284;20.890;2022-09-20T04:31:04;4.70;;;2.80;;
41141;SDS011;63666;52.284;20.890;2022-09-20T04:33:40;4.80;;;3.50;;
41141;SDS011;63666;52.284;20.890;2022-09-20T04:36:12;5.00;;;3.30;;
41141;SDS011;63666;52.284;20.890;2022-09-20T04:39:03;4.70;;;3.20;;
41141;SDS011;63666;52.284;20.890;2022-09-20T04:41:45;4.70;;;3.40;;
41141;SDS011;63666;52.284;20.890;2022-09-20T04:44:29;4.70;;;3.10;;
41141;SDS011;63666;52.284;20.890;2022-09-20T04:47:15;4.40;;;2.90;;
41141;SDS011;63666;52.284;20.890;2022-09-20T04:50:02;4.80;;;3.10;;
41141;SDS011;63666;52.284;20.890;2022-09-20T04:52:47;5.20;;;3.30;;
41141;SDS011;63666;52.284;20.890;2022-09-20T04:55:41;5.40;;;3.30;;
41141;SDS011;63666;52.284;20.890;2022-09-20T05:01:01;4.50;;;3.00;;
41141;SDS011;63666;52.284;20.890;2022-09-20T05:03:50;4.50;;;2.90;;
41141;SDS011;63666;52.284;20.890;2022-09-20T05:09:03;4.50;;;3.00;;
41141;SDS011;63666;52.284;20.890;2022-09-20T05:14:46;5.10;;;3.10;;
41141;SDS011;63666;52.284;20.890;2022-09-20T05:17:27;5.00;;;3.10;;
41141;SDS011;63666;52.284;20.890;2022-09-20T05:20:05;5.50;;;2.90;;
41141;SDS011;63666;52.284;20.890;2022-09-20T05:25:29;5.10;;;3.00;;
41141;SDS011;63666;52.284;20.890;2022-09-20T05:28:05;4.60;;;2.70;;
41141;SDS011;63666;52.284;20.890;2022-09-20T05:30:37;4.60;;;2.60;;
41141;SDS011;63666;52.284;20.890;2022-09-20T05:33:13;4.80;;;2.90;;
41141;SDS011;63666;52.284;20.890;2022-09-20T05:35:46;4.90;;;2.80;;
41141;SDS011;63666;52.284;20.890;2022-09-20T05:38:22;5.70;;;2.80;;
41141;SDS011;63666;52.284;20.890;2022-09-20T05:41:01;4.90;;;2.90;;
41141;SDS011;63666;52.284;20.890;2022-09-20T05:43:32;4.80;;;2.80;;
41141;SDS011;63666;52.284;20.890;2022-09-20T05:46:09;4.50;;;2.50;;
41141;SDS011;63666;52.284;20.890;2022-09-20T05:48:45;4.70;;;2.90;;
41141;SDS011;63666;52.284;20.890;2022-09-20T05:51:23;4.80;;;2.90;;
41141;SDS011;63666;52.284;20.890;2022-09-20T05:54:02;5.50;;;2.50;;
41141;SDS011;63666;52.284;20.890;2022-09-20T05:56:38;5.00;;;2.80;;
41141;SDS011;63666;52.284;20.890;2022-09-20T05:59:14;5.60;;;3.00;;
41141;SDS011;63666;52.284;20.890;2022-09-20T06:01:57;5.50;;;3.20;;
41141;SDS011;63666;52.284;20.890;2022-09-20T06:04:32;5.90;;;2.90;;
41141;SDS011;63666;52.284;20.890;2022-09-20T06:07:05;6.60;;;3.40;;
41141;SDS011;63666;52.284;20.890;2022-09-20T06:09:40;7.00;;;3.70;;
41141;SDS011;63666;52.284;20.890;2022-09-20T06:12:15;5.30;;;3.50;;
41141;SDS011;63666;52.284;20.890;2022-09-20T06:14:49;5.60;;;3.10;;
41141;SDS011;63666;52.284;20.890;2022-09-20T06:17:27;8.60;;;3.30;;
41141;SDS011;63666;52.284;20.890;2022-09-20T06:20:03;6.50;;;3.30;;
41141;SDS011;63666;52.284;20.890;2022-09-20T06:22:38;6.80;;;3.20;;
41141;SDS011;63666;52.284;20.890;2022-09-20T06:25:15;6.60;;;3.20;;
41141;SDS011;63666;52.284;20.890;2022-09-20T06:27:48;6.20;;;3.40;;
41141;SDS011;63666;52.284;20.890;2022-09-20T06:30:23;5.20;;;3.20;;
41141;SDS011;63666;52.284;20.890;2022-09-20T06:32:55;7.50;;;3.60;;
41141;SDS011;63666;52.284;20.890;2022-09-20T06:35:26;6.00;;;3.30;;
41141;SDS011;63666;52.284;20.890;2022-09-20T06:37:59;6.20;;;3.60;;
41141;SDS011;63666;52.284;20.890;2022-09-20T06:40:50;5.50;;;3.40;;
41141;SDS011;63666;52.284;20.890;2022-09-20T06:43:42;5.80;;;3.20;;
41141;SDS011;63666;52.284;20.890;2022-09-20T06:46:12;5.90;;;3.20;;
41141;SDS011;63666;52.284;20.890;2022-09-20T06:48:42;7.20;;;3.50;;
41141;SDS011;63666;52.284;20.890;2022-09-20T06:51:11;6.40;;;3.20;;
41141;SDS011;63666;52.284;20.890;2022-09-20T06:53:40;6.40;;;3.10;;
41141;SDS011;63666;52.284;20.890;2022-09-20T06:56:11;5.90;;;3.10;;
41141;SDS011;63666;52.284;20.890;2022-09-20T06:58:43;5.20;;;3.30;;
41141;SDS011;63666;52.284;20.890;2022-09-20T07:01:13;6.10;;;3.20;;
41141;SDS011;63666;52.284;20.890;2022-09-20T07:03:42;5.90;;;3.00;;
41141;SDS011;63666;52.284;20.890;2022-09-20T07:06:14;6.80;;;3.50;;
41141;SDS011;63666;52.284;20.890;2022-09-20T07:08:49;5.40;;;3.30;;
41141;SDS011;63666;52.284;20.890;2022-09-20T07:11:19;5.40;;;3.20;;
41141;SDS011;63666;52.284;20.890;2022-09-20T07:13:50;6.40;;;3.50;;
41141;SDS011;63666;52.284;20.890;2022-09-20T07:16:20;5.90;;;3.60;;
41141;SDS011;63666;52.284;20.890;2022-09-20T07:18:50;6.50;;;3.80;;
41141;SDS011;63666;52.284;20.890;2022-09-20T07:21:20;7.60;;;3.30;;
41141;SDS011;63666;52.284;20.890;2022-09-20T07:23:49;8.00;;;3.70;;
41141;SDS011;63666;52.284;20.890;2022-09-20T07:26:22;6.20;;;3.20;;
41141;SDS011;63666;52.284;20.890;2022-09-20T07:28:52;6.80;;;3.90;;
41141;SDS011;63666;52.284;20.890;2022-09-20T07:31:25;8.10;;;3.80;;
41141;SDS011;63666;52.284;20.890;2022-09-20T07:33:55;6.40;;;3.50;;
41141;SDS011;63666;52.284;20.890;2022-09-20T07:36:25;6.50;;;4.10;;
41141;SDS011;63666;52.284;20.890;2022-09-20T07:38:55;5.80;;;3.60;;
41141;SDS011;63666;52.284;20.890;2022-09-20T07:41:24;7.40;;;4.00;;
41141;SDS011;63666;52.284;20.890;2022-09-20T07:43:59;7.40;;;3.60;;
41141;SDS011;63666;52.284;20.890;2022-09-20T07:46:48;6.60;;;4.00;;
41141;SDS011;63666;52.284;20.890;2022-09-20T07:49:17;6.80;;;4.20;;
41141;SDS011;63666;52.284;20.890;2022-09-20T07:51:47;7.00;;;3.90;;
41141;SDS011;63666;52.284;20.890;2022-09-20T07:54:16;7.30;;;4.10;;
41141;SDS011;63666;52.284;20.890;2022-09-20T07:56:46;7.80;;;3.70;;
41141;SDS011;63666;52.284;20.890;2022-09-20T07:59:15;6.20;;;3.80;;
41141;SDS011;63666;52.284;20.890;2022-09-20T08:01:45;7.80;;;3.60;;
41141;SDS011;63666;52.284;20.890;2022-09-20T08:04:14;7.20;;;4.00;;
41141;SDS011;63666;52.284;20.890;2022-09-20T08:06:43;7.20;;;3.80;;
41141;SDS011;63666;52.284;20.890;2022-09-20T08:09:13;5.70;;;3.60;;
41141;SDS011;63666;52.284;20.890;2022-09-20T08:11:42;7.20;;;3.80;;
41141;SDS011;63666;52.284;20.890;2022-09-20T08:14:13;9.20;;;3.80;;
41141;SDS011;63666;52.284;20.890;2022-09-20T08:16:43;7.80;;;3.70;;
41141;SDS011;63666;52.284;20.890;2022-09-20T08:19:15;8.00;;;4.20;;
41141;SDS011;63666;52.284;20.890;2022-09-20T08:21:45;7.40;;;4.20;;
41141;SDS011;63666;52.284;20.890;2022-09-20T08:24:14;7.10;;;4.20;;
41141;SDS011;63666;52.284;20.890;2022-09-20T08:26:46;8.40;;;3.90;;
41141;SDS011;63666;52.284;20.890;2022-09-20T08:29:16;7.50;;;4.10;;
41141;SDS011;63666;52.284;20.890;2022-09-20T08:31:45;7.80;;;4.00;;
41141;SDS011;63666;52.284;20.890;2022-09-20T08:34:15;6.40;;;4.30;;
41141;SDS011;63666;52.284;20.890;2022-09-20T08:36:45;7.00;;;4.10;;
41141;SDS011;63666;52.284;20.890;2022-09-20T08:39:17;6.60;;;3.80;;
41141;SDS011;63666;52.284;20.890;2022-09-20T08:41:47;10.20;;;4.00;;
41141;SDS011;63666;52.284;20.890;2022-09-20T08:44:21;8.00;;;3.80;;
41141;SDS011;63666;52.284;20.890;2022-09-20T08:46:54;5.10;;;3.60;;
41141;SDS011;63666;52.284;20.890;2022-09-20T08:51:54;7.40;;;4.00;;
41141;SDS011;63666;52.284;20.890;2022-09-20T08:54:25;6.40;;;3.60;;
41141;SDS011;63666;52.284;20.890;2022-09-20T08:56:54;6.00;;;4.00;;
41141;SDS011;63666;52.284;20.890;2022-09-20T08:59:23;8.10;;;3.90;;
41141;SDS011;63666;52.284;20.890;2022-09-20T09:01:52;7.60;;;3.60;;
41141;SDS011;63666;52.284;20.890;2022-09-20T09:04:23;7.20;;;4.10;;
41141;SDS011;63666;52.284;20.890;2022-09-20T09:06:53;5.50;;;3.80;;
41141;SDS011;63666;52.284;20.890;2022-09-20T09:09:23;6.70;;;4.10;;
41141;SDS011;63666;52.284;20.890;2022-09-20T09:11:53;5.30;;;3.50;;
41141;SDS011;63666;52.284;20.890;2022-09-20T09:14:27;6.60;;;3.90;;
41141;SDS011;63666;52.284;20.890;2022-09-20T09:17:12;6.40;;;3.70;;
41141;SDS011;63666;52.284;20.890;2022-09-20T09:19:45;5.00;;;3.50;;
41141;SDS011;63666;52.284;20.890;2022-09-20T09:22:19;6.40;;;3.60;;
41141;SDS011;63666;52.284;20.890;2022-09-20T09:27:32;6.90;;;3.70;;
41141;SDS011;63666;52.284;20.890;2022-09-20T09:30:16;5.70;;;3.40;;
41141;SDS011;63666;52.284;20.890;2022-09-20T09:32:46;6.00;;;3.70;;
41141;SDS011;63666;52.284;20.890;2022-09-20T09:35:22;7.60;;;3.80;;
41141;SDS011;63666;52.284;20.890;2022-09-20T09:37:56;5.30;;;3.60;;
41141;SDS011;63666;52.284;20.890;2022-09-20T09:40:26;6.30;;;3.30;;
41141;SDS011;63666;52.284;20.890;2022-09-20T09:42:57;5.10;;;3.40;;
41141;SDS011;63666;52.284;20.890;2022-09-20T09:45:28;6.10;;;3.80;;
41141;SDS011;63666;52.284;20.890;2022-09-20T09:47:58;6.00;;;3.40;;
41141;SDS011;63666;52.284;20.890;2022-09-20T09:50:29;5.40;;;3.70;;
41141;SDS011;63666;52.284;20.890;2022-09-20T09:53:04;5.40;;;3.40;;
41141;SDS011;63666;52.284;20.890;2022-09-20T09:55:37;5.30;;;3.60;;
41141;SDS011;63666;52.284;20.890;2022-09-20T09:58:09;6.50;;;3.70;;
41141;SDS011;63666;52.284;20.890;2022-09-20T10:00:42;6.20;;;3.60;;
41141;SDS011;63666;52.284;20.890;2022-09-20T10:03:18;5.30;;;3.80;;
41141;SDS011;63666;52.284;20.890;2022-09-20T10:05:52;5.60;;;3.70;;
41141;SDS011;63666;52.284;20.890;2022-09-20T10:08:25;5.50;;;3.40;;
41141;SDS011;63666;52.284;20.890;2022-09-20T10:10:58;5.80;;;3.70;;
41141;SDS011;63666;52.284;20.890;2022-09-20T10:13:31;4.90;;;3.60;;
41141;SDS011;63666;52.284;20.890;2022-09-20T10:16:06;4.90;;;3.50;;
41141;SDS011;63666;52.284;20.890;2022-09-20T10:18:39;6.00;;;3.70;;
41141;SDS011;63666;52.284;20.890;2022-09-20T10:21:22;5.30;;;3.60;;
41141;SDS011;63666;52.284;20.890;2022-09-20T10:23:58;4.50;;;3.30;;
41141;SDS011;63666;52.284;20.890;2022-09-20T10:26:37;4.80;;;3.50;;
41141;SDS011;63666;52.284;20.890;2022-09-20T10:29:15;5.90;;;3.30;;
41141;SDS011;63666;52.284;20.890;2022-09-20T10:31:49;4.90;;;3.30;;
41141;SDS011;63666;52.284;20.890;2022-09-20T10:34:27;5.60;;;3.70;;
41141;SDS011;63666;52.284;20.890;2022-09-20T10:37:05;4.90;;;3.60;;
41141;SDS011;63666;52.284;20.890;2022-09-20T10:39:37;4.80;;;3.50;;
41141;SDS011;63666;52.284;20.890;2022-09-20T10:42:12;5.20;;;3.50;;
41141;SDS011;63666;52.284;20.890;2022-09-20T10:45:10;6.40;;;3.50;;
41141;SDS011;63666;52.284;20.890;2022-09-20T10:47:41;5.70;;;3.50;;
41141;SDS011;63666;52.284;20.890;2022-09-20T10:50:19;6.20;;;3.70;;
41141;SDS011;63666;52.284;20.890;2022-09-20T10:53:05;4.70;;;3.40;;
41141;SDS011;63666;52.284;20.890;2022-09-20T10:55:39;5.20;;;3.50;;
41141;SDS011;63666;52.284;20.890;2022-09-20T10:58:20;5.90;;;3.90;;
41141;SDS011;63666;52.284;20.890;2022-09-20T11:00:55;6.90;;;4.70;;
41141;SDS011;63666;52.284;20.890;2022-09-20T11:03:33;8.10;;;5.80;;
41141;SDS011;63666;52.284;20.890;2022-09-20T11:06:09;8.00;;;5.90;;
41141;SDS011;63666;52.284;20.890;2022-09-20T11:08:45;6.20;;;4.30;;
41141;SDS011;63666;52.284;20.890;2022-09-20T11:11:20;6.50;;;5.30;;
41141;SDS011;63666;52.284;20.890;2022-09-20T11:13:53;5.90;;;4.80;;
41141;SDS011;63666;52.284;20.890;2022-09-20T11:16:26;6.80;;;6.10;;
41141;SDS011;63666;52.284;20.890;2022-09-20T11:18:57;6.00;;;4.70;;
41141;SDS011;63666;52.284;20.890;2022-09-20T11:21:29;6.20;;;5.00;;
41141;SDS011;63666;52.284;20.890;2022-09-20T11:24:00;5.90;;;4.30;;
41141;SDS011;63666;52.284;20.890;2022-09-20T11:26:34;6.70;;;4.90;;
41141;SDS011;63666;52.284;20.890;2022-09-20T11:29:09;6.10;;;5.10;;
41141;SDS011;63666;52.284;20.890;2022-09-20T11:31:42;5.70;;;5.10;;
41141;SDS011;63666;52.284;20.890;2022-09-20T11:34:13;7.00;;;4.80;;
41141;SDS011;63666;52.284;20.890;2022-09-20T11:36:46;5.90;;;4.80;;
41141;SDS011;63666;52.284;20.890;2022-09-20T11:39:20;5.60;;;4.40;;
41141;SDS011;63666;52.284;20.890;2022-09-20T11:41:50;5.60;;;4.20;;
41141;SDS011;63666;52.284;20.890;2022-09-20T11:44:22;5.30;;;4.00;;
41141;SDS011;63666;52.284;20.890;2022-09-20T11:46:52;6.20;;;4.10;;
41141;SDS011;63666;52.284;20.890;2022-09-20T11:49:23;6.30;;;4.00;;
41141;SDS011;63666;52.284;20.890;2022-09-20T11:52:00;7.40;;;4.30;;
41141;SDS011;63666;52.284;20.890;2022-09-20T11:54:46;6.20;;;3.90;;
41141;SDS011;63666;52.284;20.890;2022-09-20T11:57:21;6.30;;;3.70;;
41141;SDS011;63666;52.284;20.890;2022-09-20T11:59:52;5.00;;;3.70;;
41141;SDS011;63666;52.284;20.890;2022-09-20T12:02:26;5.60;;;4.00;;
41141;SDS011;63666;52.284;20.890;2022-09-20T12:04:57;6.50;;;3.60;;
41141;SDS011;63666;52.284;20.890;2022-09-20T12:07:30;5.30;;;3.70;;
41141;SDS011;63666;52.284;20.890;2022-09-20T12:10:02;4.90;;;3.70;;
41141;SDS011;63666;52.284;20.890;2022-09-20T12:12:36;5.00;;;3.60;;
41141;SDS011;63666;52.284;20.890;2022-09-20T12:15:20;5.60;;;3.70;;
41141;SDS011;63666;52.284;20.890;2022-09-20T12:21:02;5.10;;;4.00;;
41141;SDS011;63666;52.284;20.890;2022-09-20T12:29:08;4.70;;;3.50;;
41141;SDS011;63666;52.284;20.890;2022-09-20T12:31:52;5.70;;;3.40;;
41141;SDS011;63666;52.284;20.890;2022-09-20T12:34:33;5.70;;;3.50;;
41141;SDS011;63666;52.284;20.890;2022-09-20T12:37:19;5.10;;;3.40;;
41141;SDS011;63666;52.284;20.890;2022-09-20T12:39:51;4.60;;;3.30;;
41141;SDS011;63666;52.284;20.890;2022-09-20T12:42:23;4.90;;;3.70;;
41141;SDS011;63666;52.284;20.890;2022-09-20T12:44:58;5.30;;;3.80;;
41141;SDS011;63666;52.284;20.890;2022-09-20T12:47:28;4.20;;;3.10;;
41141;SDS011;63666;52.284;20.890;2022-09-20T12:49:58;5.60;;;3.30;;
41141;SDS011;63666;52.284;20.890;2022-09-20T12:52:50;4.80;;;3.10;;
41141;SDS011;63666;52.284;20.890;2022-09-20T12:58:18;4.90;;;3.20;;
41141;SDS011;63666;52.284;20.890;2022-09-20T13:00:50;5.10;;;3.30;;
41141;SDS011;63666;52.284;20.890;2022-09-20T13:03:24;4.90;;;3.20;;
41141;SDS011;63666;52.284;20.890;2022-09-20T13:08:40;4.60;;;3.20;;
41141;SDS011;63666;52.284;20.890;2022-09-20T13:11:11;4.50;;;3.10;;
41141;SDS011;63666;52.284;20.890;2022-09-20T13:13:45;4.70;;;2.80;;
41141;SDS011;63666;52.284;20.890;2022-09-20T13:16:19;5.00;;;3.30;;
41141;SDS011;63666;52.284;20.890;2022-09-20T13:18:49;5.40;;;3.30;;
41141;SDS011;63666;52.284;20.890;2022-09-20T13:21:20;4.30;;;3.00;;
41141;SDS011;63666;52.284;20.890;2022-09-20T13:23:50;4.90;;;3.30;;
41141;SDS011;63666;52.284;20.890;2022-09-20T13:26:23;4.50;;;3.20;;
41141;SDS011;63666;52.284;20.890;2022-09-20T13:28:55;4.80;;;3.10;;
41141;SDS011;63666;52.284;20.890;2022-09-20T13:31:27;5.20;;;3.20;;
41141;SDS011;63666;52.284;20.890;2022-09-20T13:36:40;6.20;;;3.40;;
41141;SDS011;63666;52.284;20.890;2022-09-20T13:39:19;4.60;;;3.40;;
41141;SDS011;63666;52.284;20.890;2022-09-20T13:41:51;5.20;;;3.40;;
41141;SDS011;63666;52.284;20.890;2022-09-20T13:44:20;6.30;;;3.80;;
41141;SDS011;63666;52.284;20.890;2022-09-20T13:46:52;5.90;;;3.60;;
41141;SDS011;63666;52.284;20.890;2022-09-20T13:49:22;4.50;;;3.30;;
41141;SDS011;63666;52.284;20.890;2022-09-20T13:51:52;6.10;;;3.20;;
41141;SDS011;63666;52.284;20.890;2022-09-20T13:54:24;5.40;;;3.20;;
41141;SDS011;63666;52.284;20.890;2022-09-20T13:56:54;5.00;;;3.40;;
41141;SDS011;63666;52.284;20.890;2022-09-20T13:59:24;6.00;;;3.50;;
41141;SDS011;63666;52.284;20.890;2022-09-20T14:01:54;5.00;;;3.30;;
41141;SDS011;63666;52.284;20.890;2022-09-20T14:04:24;5.00;;;3.30;;
41141;SDS011;63666;52.284;20.890;2022-09-20T14:06:54;4.60;;;3.30;;
41141;SDS011;63666;52.284;20.890;2022-09-20T14:09:25;5.30;;;3.00;;
41141;SDS011;63666;52.284;20.890;2022-09-20T14:11:58;5.30;;;3.10;;
41141;SDS011;63666;52.284;20.890;2022-09-20T14:14:28;5.60;;;3.40;;
41141;SDS011;63666;52.284;20.890;2022-09-20T14:16:59;4.40;;;3.10;;
41141;SDS011;63666;52.284;20.890;2022-09-20T14:19:31;4.50;;;3.30;;
41141;SDS011;63666;52.284;20.890;2022-09-20T14:22:04;4.30;;;3.00;;
41141;SDS011;63666;52.284;20.890;2022-09-20T14:24:33;5.90;;;3.30;;
41141;SDS011;63666;52.284;20.890;2022-09-20T14:27:14;4.90;;;3.10;;
41141;SDS011;63666;52.284;20.890;2022-09-20T14:29:44;5.50;;;3.30;;
41141;SDS011;63666;52.284;20.890;2022-09-20T14:32:27;5.10;;;3.00;;
41141;SDS011;63666;52.284;20.890;2022-09-20T14:35:00;4.60;;;3.00;;
41141;SDS011;63666;52.284;20.890;2022-09-20T14:37:31;5.40;;;3.10;;
41141;SDS011;63666;52.284;20.890;2022-09-20T14:40:02;5.40;;;3.10;;
41141;SDS011;63666;52.284;20.890;2022-09-20T14:45:02;4.40;;;2.70;;
41141;SDS011;63666;52.284;20.890;2022-09-20T14:47:36;4.70;;;2.90;;
41141;SDS011;63666;52.284;20.890;2022-09-20T14:50:21;6.10;;;3.30;;
41141;SDS011;63666;52.284;20.890;2022-09-20T14:55:34;5.30;;;3.10;;
41141;SDS011;63666;52.284;20.890;2022-09-20T14:58:06;5.10;;;3.00;;
41141;SDS011;63666;52.284;20.890;2022-09-20T15:00:50;4.60;;;3.00;;
41141;SDS011;63666;52.284;20.890;2022-09-20T15:03:22;5.90;;;2.90;;
41141;SDS011;63666;52.284;20.890;2022-09-20T15:05:52;5.20;;;3.30;;
41141;SDS011;63666;52.284;20.890;2022-09-20T15:08:21;4.30;;;3.00;;
41141;SDS011;63666;52.284;20.890;2022-09-20T15:10:52;5.20;;;3.00;;
41141;SDS011;63666;52.284;20.890;2022-09-20T15:13:21;5.60;;;3.30;;
41141;SDS011;63666;52.284;20.890;2022-09-20T15:15:51;5.50;;;3.00;;
41141;SDS011;63666;52.284;20.890;2022-09-20T15:18:22;5.10;;;2.90;;
41141;SDS011;63666;52.284;20.890;2022-09-20T15:20:53;7.30;;;3.20;;
41141;SDS011;63666;52.284;20.890;2022-09-20T15:23:23;5.20;;;3.20;;
41141;SDS011;63666;52.284;20.890;2022-09-20T15:25:53;5.20;;;3.10;;
41141;SDS011;63666;52.284;20.890;2022-09-20T15:28:23;4.70;;;2.80;;
41141;SDS011;63666;52.284;20.890;2022-09-20T15:30:53;5.60;;;2.80;;
41141;SDS011;63666;52.284;20.890;2022-09-20T15:33:23;6.00;;;2.90;;
41141;SDS011;63666;52.284;20.890;2022-09-20T15:35:52;5.10;;;2.90;;
41141;SDS011;63666;52.284;20.890;2022-09-20T15:38:21;4.70;;;2.80;;
41141;SDS011;63666;52.284;20.890;2022-09-20T15:40:58;4.40;;;2.70;;
41141;SDS011;63666;52.284;20.890;2022-09-20T15:43:28;4.80;;;2.70;;
41141;SDS011;63666;52.284;20.890;2022-09-20T15:46:00;4.80;;;2.50;;
41141;SDS011;63666;52.284;20.890;2022-09-20T15:48:31;4.60;;;2.40;;
41141;SDS011;63666;52.284;20.890;2022-09-20T15:51:02;4.60;;;2.60;;
41141;SDS011;63666;52.284;20.890;2022-09-20T15:53:33;5.70;;;2.50;;
41141;SDS011;63666;52.284;20.890;2022-09-20T15:56:12;5.60;;;2.50;;
41141;SDS011;63666;52.284;20.890;2022-09-20T15:58:44;4.70;;;2.60;;
41141;SDS011;63666;52.284;20.890;2022-09-20T16:01:15;4.10;;;2.40;;
41141;SDS011;63666;52.284;20.890;2022-09-20T16:03:50;4.10;;;2.40;;